Airfield :
LOGIN :

Register | Disclaimer

   EN    FR    IT 

 










Legend :    VFR   Marginal VFR   IFR   Intensive IFR   Very Intensive IFR
Visi :
Ceiling :
>= 8 km
>= 3000ft
5 to 8 km
1000 to 3000 ft
1500m to 5 km
500 to 1000 ft
800 to 1500m
200 to 500 ft
< 800m
< 200 ft
Symbols :   Thunderstorms  Fog  Heavy snow  Heavy precipitations  Wind > 20 kt
SIGMETs :     Misc.  Thunderstorms  Icing  Turbulence  Mountain Waves  Volcanic Ashes







- Airport Elevation : 256 ft
- IATA code : CFR
- Download approach charts


LFRK - Caen

CURRENT METAR :
  • 220600Z AUTO 24011KT 3600 -RA BR BKN008 BKN013 OVC019 12/12 Q1009 TEMPO BKN004 BECMG 24015G25KT RA

EXPIRED METARs :
  • 220530Z AUTO 24012KT 5000 -DZ BR BKN009 BKN014 OVC019 12/12 Q1009 TEMPO BKN004 BECMG 24015G25KT RA
  • 220500Z AUTO 24014KT 5000 -DZ BR BKN008 OVC012 12/12 Q1010
  • 220430Z AUTO 25014KT 4700 -DZ BR BKN008 OVC012 12/12 Q1010
  • 220400Z AUTO 25013KT 5000 -DZ BR OVC008 12/12 Q1011
  • 220330Z AUTO 24011KT 7000 BKN008/// OVC012/// ///TCU 12/12 Q1011

TAF TAF LFRK
Valid from the 22 at 06:00 until the 22 at 15:00 UTC


220500Z 2206/2215 24015G25KT 6000 RA BKN014
TEMPO 2206/2210 3000 BKN004
BECMG 2209/2211 34010KT 9999 BKN020
BECMG 2211/2213 30014KT
TEMPO 2211/2215 BKN008
Met : +33 2 31 26 68 11
No reported NOTAMs for that airfield.
1 SIGMET reported for the Brest FIR (LFRR) :
 
Severe turbulence
LFRR SIGMET 1 VALID 220400/220800 LFPW
LFRR BREST FIR/UIR SEV TURB FCST WI N4630 W00800 - N4900 W00800 - N4915 W00700 - N4845 W00345 - N4700 W00315 - N4630 W00800 SFC/FL060 STNR INTSF=



MET'MAP, your aeronautical weather chart ! - Copyright ORBIFLY December 2007 - Disclaimer

ORBIFLY MET'MAP TEAM :

Programming & Development : Alexandra Zaïnal
Concept & Development : Baudouin d'Aumeries
Co-Development & Prog : Marc-Olivier Méhu
Technical & hardware support : Manuel Goepfert

Contact : metmap@orbifly.com




SOURCES & CREDITS :

   NOAA